sensor_id;sensor_type;location;lat;lon;timestamp;temperature;humidity
12761;DHT22;6444;49.742;6.114;2022-07-21T00:01:03;20.10;99.90
12761;DHT22;6444;49.742;6.114;2022-07-21T00:03:32;19.80;99.90
12761;DHT22;6444;49.742;6.114;2022-07-21T00:05:56;19.80;99.90
12761;DHT22;6444;49.742;6.114;2022-07-21T00:08:23;19.50;99.90
12761;DHT22;6444;49.742;6.114;2022-07-21T00:10:49;19.20;99.90
12761;DHT22;6444;49.742;6.114;2022-07-21T00:13:16;18.80;99.90
12761;DHT22;6444;49.742;6.114;2022-07-21T00:15:44;18.60;99.90
12761;DHT22;6444;49.742;6.114;2022-07-21T00:18:10;18.50;99.90
12761;DHT22;6444;49.742;6.114;2022-07-21T00:20:37;18.60;99.90
12761;DHT22;6444;49.742;6.114;2022-07-21T00:23:03;19.20;99.90
12761;DHT22;6444;49.742;6.114;2022-07-21T00:25:33;19.50;99.90
12761;DHT22;6444;49.742;6.114;2022-07-21T00:28:01;19.40;99.90
12761;DHT22;6444;49.742;6.114;2022-07-21T00:30:27;19.00;99.90
12761;DHT22;6444;49.742;6.114;2022-07-21T00:32:53;18.90;99.90
12761;DHT22;6444;49.742;6.114;2022-07-21T00:35:21;18.70;99.90
12761;DHT22;6444;49.742;6.114;2022-07-21T00:37:47;18.50;99.90
12761;DHT22;6444;49.742;6.114;2022-07-21T00:40:17;18.60;99.90
12761;DHT22;6444;49.742;6.114;2022-07-21T00:42:44;18.40;99.90
12761;DHT22;6444;49.742;6.114;2022-07-21T00:45:11;18.40;99.90
12761;DHT22;6444;49.742;6.114;2022-07-21T00:47:37;18.40;99.90
12761;DHT22;6444;49.742;6.114;2022-07-21T00:50:06;18.60;99.90
12761;DHT22;6444;49.742;6.114;2022-07-21T00:52:33;18.50;99.90
12761;DHT22;6444;49.742;6.114;2022-07-21T00:55:00;18.70;99.90
12761;DHT22;6444;49.742;6.114;2022-07-21T00:57:28;18.60;99.90
12761;DHT22;6444;49.742;6.114;2022-07-21T00:59:56;18.60;99.90
12761;DHT22;6444;49.742;6.114;2022-07-21T01:02:22;18.70;99.90
12761;DHT22;6444;49.742;6.114;2022-07-21T01:04:49;18.50;99.90
12761;DHT22;6444;49.742;6.114;2022-07-21T01:07:16;18.90;99.90
12761;DHT22;6444;49.742;6.114;2022-07-21T01:09:43;18.80;99.90
12761;DHT22;6444;49.742;6.114;2022-07-21T01:12:10;18.70;99.90
12761;DHT22;6444;49.742;6.114;2022-07-21T01:14:36;19.10;99.90
12761;DHT22;6444;49.742;6.114;2022-07-21T01:17:03;19.40;99.90
12761;DHT22;6444;49.742;6.114;2022-07-21T01:19:30;19.30;99.90
12761;DHT22;6444;49.742;6.114;2022-07-21T01:21:56;19.20;99.90
12761;DHT22;6444;49.742;6.114;2022-07-21T01:24:23;19.40;99.90
12761;DHT22;6444;49.742;6.114;2022-07-21T01:26:51;19.10;99.90
12761;DHT22;6444;49.742;6.114;2022-07-21T01:29:17;19.00;99.90
12761;DHT22;6444;49.742;6.114;2022-07-21T01:31:44;19.30;99.90
12761;DHT22;6444;49.742;6.114;2022-07-21T01:34:10;19.60;99.90
12761;DHT22;6444;49.742;6.114;2022-07-21T01:36:37;19.60;99.90
12761;DHT22;6444;49.742;6.114;2022-07-21T01:39:04;19.40;99.90
12761;DHT22;6444;49.742;6.114;2022-07-21T01:41:49;19.50;99.90
12761;DHT22;6444;49.742;6.114;2022-07-21T01:44:16;19.50;99.90
12761;DHT22;6444;49.742;6.114;2022-07-21T01:46:45;19.40;99.90
12761;DHT22;6444;49.742;6.114;2022-07-21T01:49:13;19.60;99.90
12761;DHT22;6444;49.742;6.114;2022-07-21T01:51:39;19.60;99.90
12761;DHT22;6444;49.742;6.114;2022-07-21T01:54:06;19.80;99.90
12761;DHT22;6444;49.742;6.114;2022-07-21T01:56:32;20.10;99.90
12761;DHT22;6444;49.742;6.114;2022-07-21T01:58:59;20.10;99.90
12761;DHT22;6444;49.742;6.114;2022-07-21T02:01:26;20.00;99.90
12761;DHT22;6444;49.742;6.114;2022-07-21T02:03:56;20.20;99.90
12761;DHT22;6444;49.742;6.114;2022-07-21T02:06:23;20.20;99.90
12761;DHT22;6444;49.742;6.114;2022-07-21T02:08:49;20.20;99.90
12761;DHT22;6444;49.742;6.114;2022-07-21T02:11:16;20.00;99.90
12761;DHT22;6444;49.742;6.114;2022-07-21T02:13:43;20.00;99.90
12761;DHT22;6444;49.742;6.114;2022-07-21T02:16:09;19.70;99.90
12761;DHT22;6444;49.742;6.114;2022-07-21T02:18:36;19.50;99.90
12761;DHT22;6444;49.742;6.114;2022-07-21T02:21:03;19.40;99.90
12761;DHT22;6444;49.742;6.114;2022-07-21T02:23:29;19.30;99.90
12761;DHT22;6444;49.742;6.114;2022-07-21T02:25:56;19.20;99.90
12761;DHT22;6444;49.742;6.114;2022-07-21T02:28:23;19.40;99.90
12761;DHT22;6444;49.742;6.114;2022-07-21T02:30:49;19.70;99.90
12761;DHT22;6444;49.742;6.114;2022-07-21T02:33:16;20.00;99.90
12761;DHT22;6444;49.742;6.114;2022-07-21T02:35:44;20.50;99.90
12761;DHT22;6444;49.742;6.114;2022-07-21T02:38:10;20.50;99.90
12761;DHT22;6444;49.742;6.114;2022-07-21T02:40:37;20.70;99.90
12761;DHT22;6444;49.742;6.114;2022-07-21T02:43:03;20.10;99.90
12761;DHT22;6444;49.742;6.114;2022-07-21T02:45:30;19.90;99.90
12761;DHT22;6444;49.742;6.114;2022-07-21T02:47:58;20.20;99.90
12761;DHT22;6444;49.742;6.114;2022-07-21T02:50:24;20.40;99.90
12761;DHT22;6444;49.742;6.114;2022-07-21T02:52:50;20.30;99.90
12761;DHT22;6444;49.742;6.114;2022-07-21T02:55:16;20.40;99.90
12761;DHT22;6444;49.742;6.114;2022-07-21T02:57:43;20.30;99.90
12761;DHT22;6444;49.742;6.114;2022-07-21T03:00:10;20.00;99.90
12761;DHT22;6444;49.742;6.114;2022-07-21T03:02:36;19.70;99.90
12761;DHT22;6444;49.742;6.114;2022-07-21T03:05:03;19.50;99.90
12761;DHT22;6444;49.742;6.114;2022-07-21T03:07:30;19.50;99.90
12761;DHT22;6444;49.742;6.114;2022-07-21T03:09:56;19.50;99.90
12761;DHT22;6444;49.742;6.114;2022-07-21T03:12:23;19.70;99.90
12761;DHT22;6444;49.742;6.114;2022-07-21T03:14:50;19.80;99.90
12761;DHT22;6444;49.742;6.114;2022-07-21T03:17:16;19.50;99.90
12761;DHT22;6444;49.742;6.114;2022-07-21T03:19:43;19.20;99.90
12761;DHT22;6444;49.742;6.114;2022-07-21T03:22:09;19.40;99.90
12761;DHT22;6444;49.742;6.114;2022-07-21T03:24:36;19.60;99.90
12761;DHT22;6444;49.742;6.114;2022-07-21T03:27:03;19.70;99.90
12761;DHT22;6444;49.742;6.114;2022-07-21T03:29:29;19.80;99.90
12761;DHT22;6444;49.742;6.114;2022-07-21T03:31:56;19.90;99.90
12761;DHT22;6444;49.742;6.114;2022-07-21T03:34:23;20.40;99.90
12761;DHT22;6444;49.742;6.114;2022-07-21T03:36:49;20.50;99.90
12761;DHT22;6444;49.742;6.114;2022-07-21T03:39:16;20.10;99.90
12761;DHT22;6444;49.742;6.114;2022-07-21T03:41:43;19.90;99.90
12761;DHT22;6444;49.742;6.114;2022-07-21T03:44:09;19.80;99.90
12761;DHT22;6444;49.742;6.114;2022-07-21T03:46:36;19.70;99.90
12761;DHT22;6444;49.742;6.114;2022-07-21T03:49:02;19.90;99.90
12761;DHT22;6444;49.742;6.114;2022-07-21T03:51:29;19.90;99.90
12761;DHT22;6444;49.742;6.114;2022-07-21T03:53:56;19.90;99.90
12761;DHT22;6444;49.742;6.114;2022-07-21T03:56:23;19.70;99.90
12761;DHT22;6444;49.742;6.114;2022-07-21T03:58:49;19.70;99.90
12761;DHT22;6444;49.742;6.114;2022-07-21T04:01:16;20.00;99.90
12761;DHT22;6444;49.742;6.114;2022-07-21T04:03:43;20.40;99.90
12761;DHT22;6444;49.742;6.114;2022-07-21T04:06:10;20.30;99.90
12761;DHT22;6444;49.742;6.114;2022-07-21T04:08:37;20.10;99.90
12761;DHT22;6444;49.742;6.114;2022-07-21T04:11:04;19.90;99.90
12761;DHT22;6444;49.742;6.114;2022-07-21T04:13:30;20.10;99.90
12761;DHT22;6444;49.742;6.114;2022-07-21T04:15:57;20.10;99.90
12761;DHT22;6444;49.742;6.114;2022-07-21T04:18:23;20.10;99.90
12761;DHT22;6444;49.742;6.114;2022-07-21T04:20:50;20.20;99.90
12761;DHT22;6444;49.742;6.114;2022-07-21T04:23:17;19.90;99.90
12761;DHT22;6444;49.742;6.114;2022-07-21T04:25:44;19.80;99.90
12761;DHT22;6444;49.742;6.114;2022-07-21T04:28:10;19.70;99.90
12761;DHT22;6444;49.742;6.114;2022-07-21T04:30:37;19.80;99.90
12761;DHT22;6444;49.742;6.114;2022-07-21T04:33:04;19.90;99.90
12761;DHT22;6444;49.742;6.114;2022-07-21T04:35:30;20.00;99.90
12761;DHT22;6444;49.742;6.114;2022-07-21T04:37:57;19.90;99.90
12761;DHT22;6444;49.742;6.114;2022-07-21T04:40:24;20.10;99.90
12761;DHT22;6444;49.742;6.114;2022-07-21T04:42:51;20.00;99.90
12761;DHT22;6444;49.742;6.114;2022-07-21T04:45:18;20.40;99.90
12761;DHT22;6444;49.742;6.114;2022-07-21T04:47:48;20.30;99.90
12761;DHT22;6444;49.742;6.114;2022-07-21T04:50:15;20.50;99.90
12761;DHT22;6444;49.742;6.114;2022-07-21T04:52:41;21.00;99.90
12761;DHT22;6444;49.742;6.114;2022-07-21T04:55:09;21.50;99.90
12761;DHT22;6444;49.742;6.114;2022-07-21T04:57:38;21.40;99.90
12761;DHT22;6444;49.742;6.114;2022-07-21T05:00:05;21.50;99.90
12761;DHT22;6444;49.742;6.114;2022-07-21T05:02:31;21.50;99.90
12761;DHT22;6444;49.742;6.114;2022-07-21T05:04:58;21.40;99.90
12761;DHT22;6444;49.742;6.114;2022-07-21T05:07:24;20.70;99.90
12761;DHT22;6444;49.742;6.114;2022-07-21T05:09:51;20.60;99.90
12761;DHT22;6444;49.742;6.114;2022-07-21T05:12:18;20.20;99.90
12761;DHT22;6444;49.742;6.114;2022-07-21T05:14:44;20.20;99.90
12761;DHT22;6444;49.742;6.114;2022-07-21T05:17:11;20.20;99.90
12761;DHT22;6444;49.742;6.114;2022-07-21T05:19:37;20.10;99.90
12761;DHT22;6444;49.742;6.114;2022-07-21T05:22:04;20.10;99.90
12761;DHT22;6444;49.742;6.114;2022-07-21T05:24:31;20.00;99.90
12761;DHT22;6444;49.742;6.114;2022-07-21T05:26:57;20.30;99.90
12761;DHT22;6444;49.742;6.114;2022-07-21T05:29:24;21.20;99.90
12761;DHT22;6444;49.742;6.114;2022-07-21T05:31:51;23.00;99.90
12761;DHT22;6444;49.742;6.114;2022-07-21T05:34:17;24.30;99.90
12761;DHT22;6444;49.742;6.114;2022-07-21T05:36:44;24.30;99.90
12761;DHT22;6444;49.742;6.114;2022-07-21T05:39:11;24.00;99.90
12761;DHT22;6444;49.742;6.114;2022-07-21T05:41:37;24.10;99.90
12761;DHT22;6444;49.742;6.114;2022-07-21T05:44:04;24.20;99.90
12761;DHT22;6444;49.742;6.114;2022-07-21T05:46:30;24.70;99.90
12761;DHT22;6444;49.742;6.114;2022-07-21T05:48:57;24.80;99.90
12761;DHT22;6444;49.742;6.114;2022-07-21T05:51:24;25.10;99.90
12761;DHT22;6444;49.742;6.114;2022-07-21T05:53:50;25.10;99.90
12761;DHT22;6444;49.742;6.114;2022-07-21T05:56:18;26.10;99.90
12761;DHT22;6444;49.742;6.114;2022-07-21T05:58:44;26.00;99.90
12761;DHT22;6444;49.742;6.114;2022-07-21T06:01:11;26.00;99.90
12761;DHT22;6444;49.742;6.114;2022-07-21T06:03:41;25.90;99.90
12761;DHT22;6444;49.742;6.114;2022-07-21T06:06:08;25.80;99.90
12761;DHT22;6444;49.742;6.114;2022-07-21T06:08:34;24.30;99.90
12761;DHT22;6444;49.742;6.114;2022-07-21T06:11:01;23.50;99.90
12761;DHT22;6444;49.742;6.114;2022-07-21T06:13:27;23.10;99.90
12761;DHT22;6444;49.742;6.114;2022-07-21T06:15:54;22.30;99.90
12761;DHT22;6444;49.742;6.114;2022-07-21T06:18:20;22.30;99.90
12761;DHT22;6444;49.742;6.114;2022-07-21T06:20:47;22.90;99.90
12761;DHT22;6444;49.742;6.114;2022-07-21T06:23:14;22.50;99.90
12761;DHT22;6444;49.742;6.114;2022-07-21T06:25:40;22.70;99.90
12761;DHT22;6444;49.742;6.114;2022-07-21T06:28:07;23.50;99.90
12761;DHT22;6444;49.742;6.114;2022-07-21T06:30:34;23.60;99.90
12761;DHT22;6444;49.742;6.114;2022-07-21T06:33:00;23.70;99.90
12761;DHT22;6444;49.742;6.114;2022-07-21T06:35:27;23.00;99.90
12761;DHT22;6444;49.742;6.114;2022-07-21T06:37:53;22.30;99.90
12761;DHT22;6444;49.742;6.114;2022-07-21T06:40:20;22.10;99.90
12761;DHT22;6444;49.742;6.114;2022-07-21T06:42:47;22.20;99.90
12761;DHT22;6444;49.742;6.114;2022-07-21T06:45:13;22.20;99.90
12761;DHT22;6444;49.742;6.114;2022-07-21T06:47:40;22.70;99.90
12761;DHT22;6444;49.742;6.114;2022-07-21T06:50:07;23.60;99.90
12761;DHT22;6444;49.742;6.114;2022-07-21T06:52:34;24.40;99.90
12761;DHT22;6444;49.742;6.114;2022-07-21T06:55:01;24.30;99.90
12761;DHT22;6444;49.742;6.114;2022-07-21T06:57:27;25.70;99.90
12761;DHT22;6444;49.742;6.114;2022-07-21T06:59:54;26.90;99.90
12761;DHT22;6444;49.742;6.114;2022-07-21T07:02:21;27.30;99.90
12761;DHT22;6444;49.742;6.114;2022-07-21T07:04:48;28.70;99.90
12761;DHT22;6444;49.742;6.114;2022-07-21T07:07:15;28.70;99.90
12761;DHT22;6444;49.742;6.114;2022-07-21T07:09:41;28.20;99.90
12761;DHT22;6444;49.742;6.114;2022-07-21T07:12:08;27.40;99.90
12761;DHT22;6444;49.742;6.114;2022-07-21T07:14:35;25.50;99.90
12761;DHT22;6444;49.742;6.114;2022-07-21T07:17:03;24.00;99.90
12761;DHT22;6444;49.742;6.114;2022-07-21T07:19:29;24.00;99.90
12761;DHT22;6444;49.742;6.114;2022-07-21T07:21:55;24.80;99.90
12761;DHT22;6444;49.742;6.114;2022-07-21T07:24:22;24.70;99.90
12761;DHT22;6444;49.742;6.114;2022-07-21T07:26:49;24.30;99.90
12761;DHT22;6444;49.742;6.114;2022-07-21T07:29:15;24.30;99.90
12761;DHT22;6444;49.742;6.114;2022-07-21T07:31:42;23.80;99.90
12761;DHT22;6444;49.742;6.114;2022-07-21T07:34:08;23.10;99.90
12761;DHT22;6444;49.742;6.114;2022-07-21T07:36:35;22.80;99.90
12761;DHT22;6444;49.742;6.114;2022-07-21T07:39:02;22.90;99.90
12761;DHT22;6444;49.742;6.114;2022-07-21T07:41:28;23.40;99.90
12761;DHT22;6444;49.742;6.114;2022-07-21T07:43:58;23.40;99.90
12761;DHT22;6444;49.742;6.114;2022-07-21T07:46:24;23.30;99.90
12761;DHT22;6444;49.742;6.114;2022-07-21T07:48:51;23.00;99.90
12761;DHT22;6444;49.742;6.114;2022-07-21T07:51:18;22.50;99.90
12761;DHT22;6444;49.742;6.114;2022-07-21T07:53:44;22.40;99.90
12761;DHT22;6444;49.742;6.114;2022-07-21T07:56:12;22.50;99.90
12761;DHT22;6444;49.742;6.114;2022-07-21T07:58:38;22.80;99.90
12761;DHT22;6444;49.742;6.114;2022-07-21T08:01:04;23.30;99.90
12761;DHT22;6444;49.742;6.114;2022-07-21T08:03:32;25.20;99.90
12761;DHT22;6444;49.742;6.114;2022-07-21T08:05:58;25.10;99.90
12761;DHT22;6444;49.742;6.114;2022-07-21T08:08:25;25.90;99.90
12761;DHT22;6444;49.742;6.114;2022-07-21T08:10:51;25.30;99.90
12761;DHT22;6444;49.742;6.114;2022-07-21T08:13:19;25.30;99.90
12761;DHT22;6444;49.742;6.114;2022-07-21T08:15:48;25.30;99.90
12761;DHT22;6444;49.742;6.114;2022-07-21T08:18:12;26.50;99.90
12761;DHT22;6444;49.742;6.114;2022-07-21T08:20:39;26.10;99.90
12761;DHT22;6444;49.742;6.114;2022-07-21T08:23:06;25.70;99.90
12761;DHT22;6444;49.742;6.114;2022-07-21T08:25:33;25.50;99.90
12761;DHT22;6444;49.742;6.114;2022-07-21T08:27:59;25.50;99.90
12761;DHT22;6444;49.742;6.114;2022-07-21T08:30:26;25.60;99.90
12761;DHT22;6444;49.742;6.114;2022-07-21T08:32:53;26.40;99.90
12761;DHT22;6444;49.742;6.114;2022-07-21T08:35:19;26.10;99.90
12761;DHT22;6444;49.742;6.114;2022-07-21T08:37:53;26.30;99.90
12761;DHT22;6444;49.742;6.114;2022-07-21T08:40:18;25.90;99.90
12761;DHT22;6444;49.742;6.114;2022-07-21T08:42:46;23.20;99.90
12761;DHT22;6444;49.742;6.114;2022-07-21T08:45:12;23.10;99.90
12761;DHT22;6444;49.742;6.114;2022-07-21T08:47:43;22.70;99.90
12761;DHT22;6444;49.742;6.114;2022-07-21T08:50:10;22.70;99.90
12761;DHT22;6444;49.742;6.114;2022-07-21T08:52:36;22.20;99.90
12761;DHT22;6444;49.742;6.114;2022-07-21T08:55:04;22.60;99.90
12761;DHT22;6444;49.742;6.114;2022-07-21T08:57:31;22.50;99.90
12761;DHT22;6444;49.742;6.114;2022-07-21T08:59:57;23.50;99.90
12761;DHT22;6444;49.742;6.114;2022-07-21T09:02:28;24.00;99.90
12761;DHT22;6444;49.742;6.114;2022-07-21T09:04:54;25.70;99.90
12761;DHT22;6444;49.742;6.114;2022-07-21T09:07:21;28.20;99.90
12761;DHT22;6444;49.742;6.114;2022-07-21T09:09:57;28.10;99.90
12761;DHT22;6444;49.742;6.114;2022-07-21T09:12:26;28.60;99.90
12761;DHT22;6444;49.742;6.114;2022-07-21T09:15:11;29.30;99.90
12761;DHT22;6444;49.742;6.114;2022-07-21T09:17:19;28.40;99.90
12761;DHT22;6444;49.742;6.114;2022-07-21T09:19:46;28.70;99.90
12761;DHT22;6444;49.742;6.114;2022-07-21T09:22:14;28.60;99.90
12761;DHT22;6444;49.742;6.114;2022-07-21T09:24:39;28.50;99.90
12761;DHT22;6444;49.742;6.114;2022-07-21T09:27:20;28.70;99.90
12761;DHT22;6444;49.742;6.114;2022-07-21T09:29:51;28.10;99.90
12761;DHT22;6444;49.742;6.114;2022-07-21T09:35:08;28.60;99.90
12761;DHT22;6444;49.742;6.114;2022-07-21T09:37:19;29.10;99.90
12761;DHT22;6444;49.742;6.114;2022-07-21T09:39:46;29.30;99.90
12761;DHT22;6444;49.742;6.114;2022-07-21T09:42:16;28.90;99.90
12761;DHT22;6444;49.742;6.114;2022-07-21T09:44:38;28.80;99.90
12761;DHT22;6444;49.742;6.114;2022-07-21T09:47:11;27.70;99.90
12761;DHT22;6444;49.742;6.114;2022-07-21T09:49:37;26.80;99.90
12761;DHT22;6444;49.742;6.114;2022-07-21T09:52:17;28.40;99.90
12761;DHT22;6444;49.742;6.114;2022-07-21T09:57:00;31.90;99.90
12761;DHT22;6444;49.742;6.114;2022-07-21T09:59:27;31.80;99.90
12761;DHT22;6444;49.742;6.114;2022-07-21T10:01:54;30.80;99.90
12761;DHT22;6444;49.742;6.114;2022-07-21T10:04:20;29.80;99.90
12761;DHT22;6444;49.742;6.114;2022-07-21T10:06:47;28.40;99.90
12761;DHT22;6444;49.742;6.114;2022-07-21T10:09:17;27.30;99.90
12761;DHT22;6444;49.742;6.114;2022-07-21T10:11:44;27.20;99.90
12761;DHT22;6444;49.742;6.114;2022-07-21T10:14:13;27.20;99.90
12761;DHT22;6444;49.742;6.114;2022-07-21T10:16:40;27.40;99.90
12761;DHT22;6444;49.742;6.114;2022-07-21T10:19:13;27.20;99.90
12761;DHT22;6444;49.742;6.114;2022-07-21T10:22:03;26.20;99.90
12761;DHT22;6444;49.742;6.114;2022-07-21T10:24:28;26.10;99.90
12761;DHT22;6444;49.742;6.114;2022-07-21T10:27:02;25.80;99.90
12761;DHT22;6444;49.742;6.114;2022-07-21T10:32:18;25.90;99.90
12761;DHT22;6444;49.742;6.114;2022-07-21T10:34:43;25.90;99.90
12761;DHT22;6444;49.742;6.114;2022-07-21T10:37:10;26.20;99.90
12761;DHT22;6444;49.742;6.114;2022-07-21T10:39:37;26.40;99.90
12761;DHT22;6444;49.742;6.114;2022-07-21T10:42:16;27.50;99.90
12761;DHT22;6444;49.742;6.114;2022-07-21T10:44:44;27.40;99.90
12761;DHT22;6444;49.742;6.114;2022-07-21T10:49:41;29.20;99.90
12761;DHT22;6444;49.742;6.114;2022-07-21T10:55:35;29.40;99.90
12761;DHT22;6444;49.742;6.114;2022-07-21T10:57:26;29.40;99.90
12761;DHT22;6444;49.742;6.114;2022-07-21T11:00:33;29.20;99.90
12761;DHT22;6444;49.742;6.114;2022-07-21T11:02:59;28.80;99.90
12761;DHT22;6444;49.742;6.114;2022-07-21T11:05:23;29.10;99.90
12761;DHT22;6444;49.742;6.114;2022-07-21T11:08:15;28.10;99.90
12761;DHT22;6444;49.742;6.114;2022-07-21T11:10:44;26.80;99.90
12761;DHT22;6444;49.742;6.114;2022-07-21T11:13:10;27.00;99.90
12761;DHT22;6444;49.742;6.114;2022-07-21T11:15:43;27.80;99.90
12761;DHT22;6444;49.742;6.114;2022-07-21T11:18:09;27.80;99.90
12761;DHT22;6444;49.742;6.114;2022-07-21T11:20:35;27.80;99.90
12761;DHT22;6444;49.742;6.114;2022-07-21T11:23:02;28.40;99.90
12761;DHT22;6444;49.742;6.114;2022-07-21T11:25:33;28.50;99.90
12761;DHT22;6444;49.742;6.114;2022-07-21T11:27:59;28.60;99.90
12761;DHT22;6444;49.742;6.114;2022-07-21T11:30:25;28.50;99.90
12761;DHT22;6444;49.742;6.114;2022-07-21T11:32:52;28.30;99.90
12761;DHT22;6444;49.742;6.114;2022-07-21T11:35:20;28.10;99.90
12761;DHT22;6444;49.742;6.114;2022-07-21T11:37:48;27.40;99.90
12761;DHT22;6444;49.742;6.114;2022-07-21T11:40:18;27.40;99.90
12761;DHT22;6444;49.742;6.114;2022-07-21T11:42:41;28.30;99.90
12761;DHT22;6444;49.742;6.114;2022-07-21T11:45:08;30.30;99.90
12761;DHT22;6444;49.742;6.114;2022-07-21T11:47:34;31.30;99.90
12761;DHT22;6444;49.742;6.114;2022-07-21T11:50:02;31.40;99.90
12761;DHT22;6444;49.742;6.114;2022-07-21T11:52:29;31.40;99.90
12761;DHT22;6444;49.742;6.114;2022-07-21T11:54:55;31.30;99.90
12761;DHT22;6444;49.742;6.114;2022-07-21T11:57:22;30.80;99.90
12761;DHT22;6444;49.742;6.114;2022-07-21T11:59:49;31.20;99.90
12761;DHT22;6444;49.742;6.114;2022-07-21T12:02:19;29.20;99.90
12761;DHT22;6444;49.742;6.114;2022-07-21T12:07:22;28.90;99.90
12761;DHT22;6444;49.742;6.114;2022-07-21T12:09:54;28.90;99.90
12761;DHT22;6444;49.742;6.114;2022-07-21T12:12:30;28.60;99.90
12761;DHT22;6444;49.742;6.114;2022-07-21T12:14:56;30.40;99.90
12761;DHT22;6444;49.742;6.114;2022-07-21T12:17:36;30.30;99.90
12761;DHT22;6444;49.742;6.114;2022-07-21T12:20:02;31.90;99.90
12761;DHT22;6444;49.742;6.114;2022-07-21T12:22:42;32.90;99.90
12761;DHT22;6444;49.742;6.114;2022-07-21T12:25:07;32.60;98.20
12761;DHT22;6444;49.742;6.114;2022-07-21T12:27:36;33.40;97.10
12761;DHT22;6444;49.742;6.114;2022-07-21T12:30:05;32.50;96.90
12761;DHT22;6444;49.742;6.114;2022-07-21T12:32:40;32.40;97.30
12761;DHT22;6444;49.742;6.114;2022-07-21T12:35:15;29.80;99.40
12761;DHT22;6444;49.742;6.114;2022-07-21T12:37:54;28.70;99.90
12761;DHT22;6444;49.742;6.114;2022-07-21T12:40:18;29.40;99.90
12761;DHT22;6444;49.742;6.114;2022-07-21T12:42:44;30.60;99.40
12761;DHT22;6444;49.742;6.114;2022-07-21T12:45:15;30.60;98.40
12761;DHT22;6444;49.742;6.114;2022-07-21T12:47:41;30.10;98.20
12761;DHT22;6444;49.742;6.114;2022-07-21T12:50:08;29.60;98.10
12761;DHT22;6444;49.742;6.114;2022-07-21T12:52:35;27.80;99.90
12761;DHT22;6444;49.742;6.114;2022-07-21T12:55:01;27.70;99.90
12761;DHT22;6444;49.742;6.114;2022-07-21T12:57:29;27.70;99.90
12761;DHT22;6444;49.742;6.114;2022-07-21T12:59:55;28.60;99.90
12761;DHT22;6444;49.742;6.114;2022-07-21T13:02:21;28.70;99.90
12761;DHT22;6444;49.742;6.114;2022-07-21T13:04:49;29.40;99.90
12761;DHT22;6444;49.742;6.114;2022-07-21T13:07:15;29.40;99.90
12761;DHT22;6444;49.742;6.114;2022-07-21T13:09:42;29.80;99.30
12761;DHT22;6444;49.742;6.114;2022-07-21T13:12:08;29.30;99.90
12761;DHT22;6444;49.742;6.114;2022-07-21T13:14:35;28.60;99.90
12761;DHT22;6444;49.742;6.114;2022-07-21T13:17:02;28.80;99.90
12761;DHT22;6444;49.742;6.114;2022-07-21T13:19:29;28.70;99.90
12761;DHT22;6444;49.742;6.114;2022-07-21T13:21:56;29.90;99.90
12761;DHT22;6444;49.742;6.114;2022-07-21T13:24:22;31.00;99.50
12761;DHT22;6444;49.742;6.114;2022-07-21T13:26:49;31.50;97.90
12761;DHT22;6444;49.742;6.114;2022-07-21T13:29:16;32.10;97.30
12761;DHT22;6444;49.742;6.114;2022-07-21T13:31:43;32.00;97.30
12761;DHT22;6444;49.742;6.114;2022-07-21T13:34:10;31.60;96.70
12761;DHT22;6444;49.742;6.114;2022-07-21T13:36:37;30.20;97.70
12761;DHT22;6444;49.742;6.114;2022-07-21T13:39:04;30.40;97.60
12761;DHT22;6444;49.742;6.114;2022-07-21T13:41:31;29.50;98.40
12761;DHT22;6444;49.742;6.114;2022-07-21T13:43:57;29.40;98.30
12761;DHT22;6444;49.742;6.114;2022-07-21T13:46:24;28.80;98.90
12761;DHT22;6444;49.742;6.114;2022-07-21T13:48:50;28.10;99.20
12761;DHT22;6444;49.742;6.114;2022-07-21T13:51:17;27.70;99.90
12761;DHT22;6444;49.742;6.114;2022-07-21T13:53:45;28.40;99.90
12761;DHT22;6444;49.742;6.114;2022-07-21T13:56:11;28.30;99.90
12761;DHT22;6444;49.742;6.114;2022-07-21T13:58:38;28.50;99.90
12761;DHT22;6444;49.742;6.114;2022-07-21T14:01:04;28.90;99.60
12761;DHT22;6444;49.742;6.114;2022-07-21T14:03:31;29.30;99.30
12761;DHT22;6444;49.742;6.114;2022-07-21T14:05:58;29.20;99.20
12761;DHT22;6444;49.742;6.114;2022-07-21T14:08:25;28.70;99.60
12761;DHT22;6444;49.742;6.114;2022-07-21T14:10:51;28.60;99.90
12761;DHT22;6444;49.742;6.114;2022-07-21T14:13:18;28.70;99.90
12761;DHT22;6444;49.742;6.114;2022-07-21T14:15:45;28.10;99.90
12761;DHT22;6444;49.742;6.114;2022-07-21T14:18:12;28.00;99.90
12761;DHT22;6444;49.742;6.114;2022-07-21T14:20:39;28.40;99.90
12761;DHT22;6444;49.742;6.114;2022-07-21T14:23:05;28.70;99.90
12761;DHT22;6444;49.742;6.114;2022-07-21T14:25:32;29.30;99.90
12761;DHT22;6444;49.742;6.114;2022-07-21T14:27:59;29.20;99.90
12761;DHT22;6444;49.742;6.114;2022-07-21T14:30:26;29.10;99.90
12761;DHT22;6444;49.742;6.114;2022-07-21T14:32:53;28.90;99.90
12761;DHT22;6444;49.742;6.114;2022-07-21T14:35:19;28.60;99.90
12761;DHT22;6444;49.742;6.114;2022-07-21T14:37:46;28.70;99.90
12761;DHT22;6444;49.742;6.114;2022-07-21T14:40:13;28.80;99.50
12761;DHT22;6444;49.742;6.114;2022-07-21T14:42:41;28.40;99.90
12761;DHT22;6444;49.742;6.114;2022-07-21T14:45:07;28.30;99.90
12761;DHT22;6444;49.742;6.114;2022-07-21T14:47:34;28.30;99.90
12761;DHT22;6444;49.742;6.114;2022-07-21T14:50:00;28.30;99.90
12761;DHT22;6444;49.742;6.114;2022-07-21T14:52:27;28.70;99.90
12761;DHT22;6444;49.742;6.114;2022-07-21T14:54:54;29.00;99.90
12761;DHT22;6444;49.742;6.114;2022-07-21T14:57:21;29.80;99.40
12761;DHT22;6444;49.742;6.114;2022-07-21T14:59:48;29.80;99.30
12761;DHT22;6444;49.742;6.114;2022-07-21T15:02:17;29.30;99.00
12761;DHT22;6444;49.742;6.114;2022-07-21T15:04:41;28.80;99.90
12761;DHT22;6444;49.742;6.114;2022-07-21T15:07:08;29.80;98.70
12761;DHT22;6444;49.742;6.114;2022-07-21T15:09:35;30.30;97.70
12761;DHT22;6444;49.742;6.114;2022-07-21T15:12:02;29.70;98.00
12761;DHT22;6444;49.742;6.114;2022-07-21T15:14:28;29.60;98.00
12761;DHT22;6444;49.742;6.114;2022-07-21T15:16:55;30.00;98.10
12761;DHT22;6444;49.742;6.114;2022-07-21T15:19:25;29.90;98.10
12761;DHT22;6444;49.742;6.114;2022-07-21T15:21:52;30.00;98.60
12761;DHT22;6444;49.742;6.114;2022-07-21T15:24:19;30.00;98.60
12761;DHT22;6444;49.742;6.114;2022-07-21T15:26:46;30.00;99.00
12761;DHT22;6444;49.742;6.114;2022-07-21T15:29:12;30.40;98.20
12761;DHT22;6444;49.742;6.114;2022-07-21T15:31:40;30.30;98.50
12761;DHT22;6444;49.742;6.114;2022-07-21T15:34:06;30.20;98.10
12761;DHT22;6444;49.742;6.114;2022-07-21T15:36:33;29.70;98.90
12761;DHT22;6444;49.742;6.114;2022-07-21T15:38:59;29.70;98.70
12761;DHT22;6444;49.742;6.114;2022-07-21T15:41:26;29.90;98.40
12761;DHT22;6444;49.742;6.114;2022-07-21T15:43:53;29.90;98.20
12761;DHT22;6444;49.742;6.114;2022-07-21T15:46:20;30.00;98.70
12761;DHT22;6444;49.742;6.114;2022-07-21T15:48:48;30.10;98.00
12761;DHT22;6444;49.742;6.114;2022-07-21T15:51:13;28.80;98.70
12761;DHT22;6444;49.742;6.114;2022-07-21T15:53:39;28.00;99.90
12761;DHT22;6444;49.742;6.114;2022-07-21T15:56:06;27.70;99.90
12761;DHT22;6444;49.742;6.114;2022-07-21T15:58:33;28.00;99.90
12761;DHT22;6444;49.742;6.114;2022-07-21T16:01:00;29.30;99.60